Time;durP1;ratioP1;P1;durP2;ratioP2;P2;SDS_P1;SDS_P2;PMS_P1;PMS_P2;Temp;Humidity;BMP_temperature;BMP_pressure;BME280_temperature;BME280_humidity;BME280_pressure;Samples;Min_cycle;Max_cycle;Signal;HPM_P1;HPM_P2
2024/02/15 00:01:17;;;;;;;23.75;15.10;;;12.70;99.90;;;;;;5074103;28;20216;-74
2024/02/15 00:03:45;;;;;;;21.83;14.35;;;12.70;99.90;;;;;;5075111;28;20241;-73
2024/02/15 00:06:12;;;;;;;23.45;15.20;;;12.60;99.90;;;;;;5064781;28;20254;-72
2024/02/15 00:08:39;;;;;;;24.65;16.05;;;12.70;99.90;;;;;;5069495;28;20623;-73
2024/02/15 00:11:09;;;;;;;19.50;13.25;;;12.70;99.90;;;;;;5072545;28;20203;-74
2024/02/15 00:13:36;;;;;;;25.33;15.75;;;12.70;99.90;;;;;;5064541;28;20226;-75
2024/02/15 00:16:03;;;;;;;18.75;14.80;;;12.70;99.90;;;;;;5074000;28;20680;-73
2024/02/15 00:18:32;;;;;;;25.50;16.60;;;12.70;99.90;;;;;;5074530;28;20210;-74
2024/02/15 00:21:01;;;;;;;22.02;15.00;;;12.60;99.90;;;;;;5072251;28;20207;-75
2024/02/15 00:23:28;;;;;;;22.60;16.27;;;12.60;99.90;;;;;;5072276;28;20226;-74
2024/02/15 00:25:55;;;;;;;23.17;15.80;;;12.70;99.90;;;;;;5074312;28;20223;-72
2024/02/15 00:28:23;;;;;;;24.85;18.42;;;12.60;99.90;;;;;;5074028;28;20223;-73
2024/02/15 00:30:50;;;;;;;23.13;15.45;;;12.70;99.90;;;;;;5073965;28;20238;-75
2024/02/15 00:33:17;;;;;;;27.10;17.40;;;12.60;99.90;;;;;;5071783;28;20231;-73
2024/02/15 00:35:44;;;;;;;25.63;17.40;;;12.70;99.90;;;;;;5072961;28;20249;-73
2024/02/15 00:38:13;;;;;;;25.42;19.05;;;12.60;99.90;;;;;;5073766;28;20199;-74
2024/02/15 00:40:40;;;;;;;30.65;21.73;;;12.60;99.90;;;;;;5071031;28;20203;-74
2024/02/15 00:43:07;;;;;;;33.72;19.65;;;12.60;99.90;;;;;;5073487;28;20306;-74
2024/02/15 00:45:34;;;;;;;31.65;20.35;;;12.60;99.90;;;;;;5074102;28;20248;-74
2024/02/15 00:48:01;;;;;;;34.90;20.67;;;12.60;99.90;;;;;;5073805;28;20227;-75
2024/02/15 00:50:27;;;;;;;24.98;17.63;;;12.60;99.90;;;;;;5067338;28;20741;-73
2024/02/15 00:52:54;;;;;;;34.00;22.35;;;12.60;99.90;;;;;;5065417;28;20228;-74
2024/02/15 00:55:23;;;;;;;33.92;19.35;;;12.60;99.90;;;;;;5073972;28;20231;-74
2024/02/15 00:57:50;;;;;;;42.08;23.73;;;12.60;99.90;;;;;;5071695;28;20605;-73
2024/02/15 01:00:18;;;;;;;41.05;23.27;;;12.60;99.90;;;;;;5071273;28;20240;-74
2024/02/15 01:02:45;;;;;;;36.90;23.63;;;12.60;99.90;;;;;;5065843;28;20235;-74
2024/02/15 01:05:15;;;;;;;36.65;23.50;;;12.70;99.90;;;;;;5071049;28;20234;-75
2024/02/15 01:07:42;;;;;;;34.65;23.33;;;12.70;99.90;;;;;;5064926;28;20250;-73
2024/02/15 01:10:10;;;;;;;32.40;20.70;;;12.60;99.90;;;;;;5057672;28;20250;-74
2024/02/15 01:12:38;;;;;;;36.10;21.50;;;12.60;99.90;;;;;;5067718;28;20227;-74
2024/02/15 01:15:06;;;;;;;34.90;21.27;;;12.60;99.90;;;;;;5067700;28;20233;-73
2024/02/15 01:17:33;;;;;;;37.60;24.27;;;12.60;99.90;;;;;;5065766;28;20223;-74
2024/02/15 01:20:00;;;;;;;38.50;22.63;;;12.60;99.90;;;;;;5065928;28;20205;-73
2024/02/15 01:22:27;;;;;;;40.65;23.30;;;12.60;99.90;;;;;;5071614;28;20268;-73
2024/02/15 01:24:54;;;;;;;38.25;22.42;;;12.60;99.90;;;;;;5072870;28;20284;-73
2024/02/15 01:27:21;;;;;;;39.00;22.27;;;12.60;99.90;;;;;;5069052;28;20261;-74
2024/02/15 01:29:49;;;;;;;46.08;23.67;;;12.60;99.90;;;;;;5071066;28;20207;-75
2024/02/15 01:32:16;;;;;;;42.38;23.50;;;12.60;99.90;;;;;;5064984;28;20232;-73
2024/02/15 01:34:43;;;;;;;38.55;22.05;;;12.60;99.90;;;;;;5067857;28;20268;-72
2024/02/15 01:37:10;;;;;;;44.22;23.30;;;12.60;99.90;;;;;;5071261;28;20662;-74
2024/02/15 01:39:37;;;;;;;38.13;22.58;;;12.60;99.90;;;;;;5070214;28;20196;-74
2024/02/15 01:42:05;;;;;;;39.20;22.83;;;12.60;99.90;;;;;;5065026;28;20204;-74
2024/02/15 01:44:32;;;;;;;43.92;24.27;;;12.60;99.90;;;;;;5072937;28;20223;-73
2024/02/15 01:47:01;;;;;;;38.28;21.80;;;12.60;99.90;;;;;;5071859;28;20222;-74
2024/02/15 01:49:29;;;;;;;42.95;23.08;;;12.60;99.90;;;;;;5072034;28;20227;-73
2024/02/15 01:51:58;;;;;;;46.20;24.08;;;12.60;99.90;;;;;;5071854;28;20280;-72
2024/02/15 01:54:26;;;;;;;49.90;24.52;;;12.60;99.90;;;;;;5065099;28;20617;-74
2024/02/15 01:56:54;;;;;;;50.00;25.45;;;12.50;99.90;;;;;;5072123;28;20195;-73
2024/02/15 01:59:23;;;;;;;40.15;23.00;;;12.50;99.90;;;;;;5071495;28;20195;-72
2024/02/15 02:01:51;;;;;;;30.90;19.17;;;12.60;99.90;;;;;;5067776;28;20200;-74
2024/02/15 02:04:20;;;;;;;41.33;22.55;;;12.60;99.90;;;;;;5071925;28;20591;-73
2024/02/15 02:06:47;;;;;;;39.05;23.02;;;12.60;99.90;;;;;;5067322;28;20633;-74
2024/02/15 02:09:14;;;;;;;41.80;22.17;;;12.60;99.90;;;;;;5067823;28;20299;-75
2024/02/15 02:11:42;;;;;;;34.92;19.83;;;12.60;99.90;;;;;;5067078;28;20234;-75
2024/02/15 02:14:09;;;;;;;33.35;22.17;;;12.60;99.90;;;;;;5071699;28;20224;-74
2024/02/15 02:16:36;;;;;;;33.20;21.85;;;12.60;99.90;;;;;;5069401;28;20727;-72
2024/02/15 02:19:07;;;;;;;34.30;21.27;;;12.60;99.90;;;;;;5072239;28;20661;-74
2024/02/15 02:21:38;;;;;;;36.83;21.10;;;12.60;99.90;;;;;;5064122;28;20199;-74
2024/02/15 02:24:08;;;;;;;34.63;20.13;;;12.60;99.90;;;;;;5068730;28;20252;-74
2024/02/15 02:26:37;;;;;;;32.60;20.10;;;12.60;99.90;;;;;;5072461;28;20207;-75
2024/02/15 02:29:04;;;;;;;30.58;20.00;;;12.60;99.90;;;;;;5072329;28;20658;-74
2024/02/15 02:31:34;;;;;;;29.52;20.38;;;12.60;99.90;;;;;;5067119;28;20222;-74
2024/02/15 02:34:01;;;;;;;33.35;19.85;;;12.60;99.90;;;;;;5069538;28;20237;-74
2024/02/15 02:36:29;;;;;;;31.60;19.65;;;12.60;99.90;;;;;;5071311;28;20203;-74
2024/02/15 02:39:00;;;;;;;33.72;20.60;;;12.70;99.90;;;;;;5067861;28;20280;-73
2024/02/15 02:41:28;;;;;;;30.50;19.33;;;12.70;99.90;;;;;;5071202;28;20206;-75
2024/02/15 02:43:58;;;;;;;27.08;17.25;;;12.70;99.90;;;;;;5069649;28;20342;-74
2024/02/15 02:46:25;;;;;;;29.90;19.45;;;12.70;99.90;;;;;;5071871;28;20253;-74
2024/02/15 02:48:53;;;;;;;33.45;20.08;;;12.60;99.90;;;;;;5071617;28;20251;-74
2024/02/15 02:51:20;;;;;;;30.70;19.17;;;12.70;99.90;;;;;;5062374;28;20253;-76
2024/02/15 02:53:47;;;;;;;28.00;16.23;;;12.70;99.90;;;;;;5071985;28;20268;-75
2024/02/15 02:56:14;;;;;;;30.08;19.30;;;12.70;99.90;;;;;;5070211;28;20290;-74
2024/02/15 02:58:43;;;;;;;30.30;17.77;;;12.60;99.90;;;;;;5068879;28;20248;-73
2024/02/15 03:01:13;;;;;;;29.88;18.52;;;12.60;99.90;;;;;;5068575;28;20217;-73
2024/02/15 03:03:40;;;;;;;32.53;18.75;;;12.70;99.90;;;;;;5071993;28;20224;-73
2024/02/15 03:06:07;;;;;;;29.73;19.17;;;12.70;99.90;;;;;;5073476;28;20253;-74
2024/02/15 03:08:34;;;;;;;30.08;19.75;;;12.60;99.90;;;;;;5075394;28;20706;-75
2024/02/15 03:11:01;;;;;;;32.40;20.40;;;12.60;99.90;;;;;;5074455;28;20617;-74
2024/02/15 03:13:28;;;;;;;35.10;21.00;;;12.70;99.90;;;;;;5071152;28;20224;-74
2024/02/15 03:15:55;;;;;;;30.63;19.38;;;12.60;99.90;;;;;;5059351;28;20204;-74
2024/02/15 03:18:24;;;;;;;35.15;23.52;;;12.70;99.90;;;;;;5074052;28;20249;-73
2024/02/15 03:20:51;;;;;;;31.20;19.85;;;12.70;99.90;;;;;;5068988;28;20199;-73
2024/02/15 03:23:18;;;;;;;38.08;21.23;;;12.70;99.90;;;;;;5072965;28;20689;-75
2024/02/15 03:25:45;;;;;;;40.38;22.65;;;12.70;99.90;;;;;;5075151;28;20260;-73
2024/02/15 03:28:12;;;;;;;31.67;21.95;;;12.70;99.90;;;;;;5074720;28;20207;-75
2024/02/15 03:30:39;;;;;;;35.80;22.80;;;12.60;99.90;;;;;;5073018;28;20567;-74
2024/02/15 03:33:06;;;;;;;39.35;21.80;;;12.60;99.90;;;;;;5074867;28;20227;-73
2024/02/15 03:35:35;;;;;;;38.38;22.02;;;12.60;99.90;;;;;;5067703;28;20231;-74
2024/02/15 03:38:02;;;;;;;38.15;21.48;;;12.60;99.90;;;;;;5074128;28;20203;-75
2024/02/15 03:40:30;;;;;;;33.58;21.88;;;12.60;99.90;;;;;;5073533;28;20265;-73
2024/02/15 03:42:57;;;;;;;37.05;22.00;;;12.70;99.90;;;;;;5074623;28;20247;-76
2024/02/15 03:45:25;;;;;;;33.38;21.25;;;12.70;99.90;;;;;;5075199;28;20235;-74
2024/02/15 03:47:52;;;;;;;36.95;21.58;;;12.70;99.90;;;;;;5065891;28;20689;-73
2024/02/15 03:50:21;;;;;;;37.10;21.92;;;12.70;99.90;;;;;;5073993;28;20196;-75
2024/02/15 03:52:51;;;;;;;39.20;24.15;;;12.70;99.90;;;;;;5074672;28;20219;-76
2024/02/15 03:55:18;;;;;;;36.55;23.17;;;12.60;99.90;;;;;;5073212;28;20296;-73
2024/02/15 03:57:45;;;;;;;36.45;21.48;;;12.70;99.90;;;;;;5069636;28;20200;-75
2024/02/15 04:00:15;;;;;;;42.17;23.50;;;12.60;99.90;;;;;;5068768;28;20658;-75
2024/02/15 04:02:42;;;;;;;33.85;22.17;;;12.60;99.90;;;;;;5065977;28;20223;-72
2024/02/15 04:05:11;;;;;;;36.75;21.38;;;12.60;99.90;;;;;;5070412;28;20229;-75
2024/02/15 04:07:39;;;;;;;33.13;22.15;;;12.60;99.90;;;;;;5071588;28;20229;-74
2024/02/15 04:10:09;;;;;;;38.50;22.90;;;12.60;99.90;;;;;;5067995;28;20267;-73
2024/02/15 04:12:36;;;;;;;43.60;24.30;;;12.60;99.90;;;;;;5066370;28;20314;-72
2024/02/15 04:15:11;;;;;;;33.78;22.45;;;12.60;99.90;;;;;;5068060;28;20210;-73
2024/02/15 04:17:38;;;;;;;37.75;23.08;;;12.60;99.90;;;;;;5072998;28;20632;-73
2024/02/15 04:20:06;;;;;;;37.88;22.05;;;12.60;99.90;;;;;;5070243;28;20249;-74
2024/02/15 04:22:36;;;;;;;42.70;23.58;;;12.60;99.90;;;;;;5073980;28;20230;-74
2024/02/15 04:25:03;;;;;;;32.60;20.70;;;12.60;99.90;;;;;;5074384;28;20211;-74
2024/02/15 04:27:32;;;;;;;34.30;22.83;;;12.60;99.90;;;;;;5074312;28;20231;-73
2024/02/15 04:29:59;;;;;;;34.95;22.98;;;12.60;99.90;;;;;;5069622;28;20199;-74
2024/02/15 04:32:26;;;;;;;29.40;19.95;;;12.60;99.90;;;;;;5071073;28;20683;-73
2024/02/15 04:34:53;;;;;;;37.83;22.38;;;12.60;99.90;;;;;;5074391;28;20199;-75
2024/02/15 04:37:21;;;;;;;34.80;21.27;;;12.60;99.90;;;;;;5067105;28;20200;-74
2024/02/15 04:39:48;;;;;;;31.77;20.98;;;12.60;99.90;;;;;;5073247;28;20242;-73
2024/02/15 04:42:18;;;;;;;36.17;22.23;;;12.60;99.90;;;;;;5073279;28;20328;-74
2024/02/15 04:44:46;;;;;;;32.92;20.83;;;12.60;99.90;;;;;;5069549;28;20665;-74
2024/02/15 04:47:13;;;;;;;39.22;22.83;;;12.60;99.90;;;;;;5066688;28;20262;-74
2024/02/15 04:49:41;;;;;;;33.10;21.67;;;12.60;99.90;;;;;;5069180;28;20222;-73
2024/02/15 04:52:09;;;;;;;36.33;21.83;;;12.60;99.90;;;;;;5070382;28;20206;-74
2024/02/15 04:54:36;;;;;;;43.22;25.08;;;12.60;99.90;;;;;;5068399;28;20200;-73
2024/02/15 04:57:03;;;;;;;36.92;23.13;;;12.70;99.90;;;;;;5071978;28;20220;-73
2024/02/15 04:59:30;;;;;;;38.78;22.10;;;12.70;99.90;;;;;;5067084;28;20199;-73
2024/02/15 05:01:59;;;;;;;29.02;19.95;;;12.70;99.90;;;;;;5068122;28;20567;-73
2024/02/15 05:04:26;;;;;;;41.10;23.30;;;12.70;99.90;;;;;;5068875;28;20636;-73
2024/02/15 05:06:53;;;;;;;41.22;24.20;;;12.70;99.90;;;;;;5068686;28;20253;-74
2024/02/15 05:09:22;;;;;;;46.22;26.35;;;12.80;99.90;;;;;;5069033;28;20239;-74
2024/02/15 05:11:50;;;;;;;38.60;23.02;;;12.80;99.90;;;;;;5068182;28;20666;-73
2024/02/15 05:14:19;;;;;;;34.25;20.42;;;12.80;99.90;;;;;;5072857;28;20594;-74
2024/02/15 05:16:47;;;;;;;45.85;25.15;;;12.90;99.90;;;;;;5066898;28;20213;-74
2024/02/15 05:19:16;;;;;;;38.38;21.42;;;12.90;99.90;;;;;;5069496;28;20290;-74
2024/02/15 05:21:45;;;;;;;34.28;20.40;;;12.90;99.90;;;;;;5058581;28;20286;-73
2024/02/15 05:24:14;;;;;;;55.80;28.90;;;13.00;99.90;;;;;;5072006;28;20289;-74
2024/02/15 05:26:42;;;;;;;60.95;28.45;;;13.00;99.90;;;;;;5073250;28;20286;-74
2024/02/15 05:29:11;;;;;;;34.83;20.92;;;13.00;99.90;;;;;;5066228;28;20223;-73
2024/02/15 05:31:39;;;;;;;46.10;25.35;;;12.90;99.90;;;;;;5069795;28;20206;-75
2024/02/15 05:34:11;;;;;;;56.13;25.88;;;13.00;99.90;;;;;;5068538;28;20231;-74
2024/02/15 05:36:40;;;;;;;37.10;20.83;;;13.00;99.90;;;;;;5064795;28;20249;-74
2024/02/15 05:39:07;;;;;;;37.13;21.70;;;12.90;99.90;;;;;;5072859;28;20252;-74
2024/02/15 05:41:34;;;;;;;57.75;28.10;;;13.00;99.90;;;;;;5068746;28;20233;-74
2024/02/15 05:44:01;;;;;;;47.92;25.17;;;12.90;99.90;;;;;;5073005;28;20242;-74
2024/02/15 05:46:28;;;;;;;66.75;29.88;;;13.00;99.90;;;;;;5072083;28;20203;-75
2024/02/15 05:48:55;;;;;;;45.88;25.63;;;13.00;99.90;;;;;;5072438;28;20313;-74
2024/02/15 05:51:23;;;;;;;32.63;21.83;;;13.00;99.90;;;;;;5071052;28;20211;-73
2024/02/15 05:53:54;;;;;;;52.25;28.08;;;13.00;99.90;;;;;;5071916;28;20263;-74
2024/02/15 05:56:21;;;;;;;42.80;23.27;;;13.00;99.90;;;;;;5072432;28;20259;-74
2024/02/15 05:58:49;;;;;;;54.50;28.05;;;13.00;99.90;;;;;;5072477;28;20237;-74
2024/02/15 06:01:16;;;;;;;56.47;28.40;;;13.10;99.90;;;;;;5068510;28;20709;-74
2024/02/15 06:03:44;;;;;;;42.55;24.50;;;13.10;99.90;;;;;;5072758;28;20261;-72
2024/02/15 06:06:12;;;;;;;38.85;22.13;;;13.10;99.90;;;;;;5072549;28;20250;-74
2024/02/15 06:08:39;;;;;;;51.47;27.20;;;13.10;99.90;;;;;;5070670;28;20222;-75
2024/02/15 06:11:09;;;;;;;48.47;25.40;;;13.10;99.90;;;;;;5071221;28;20210;-74
2024/02/15 06:13:36;;;;;;;36.65;22.67;;;13.10;99.90;;;;;;5067067;28;20226;-74
2024/02/15 06:16:08;;;;;;;58.80;26.85;;;13.10;99.90;;;;;;5071850;28;20650;-74
2024/02/15 06:18:37;;;;;;;34.25;20.90;;;13.10;99.90;;;;;;5069086;28;20203;-74
2024/02/15 06:21:05;;;;;;;46.33;25.98;;;13.10;99.90;;;;;;5070045;28;20214;-74
2024/02/15 06:23:33;;;;;;;36.15;20.83;;;13.00;99.90;;;;;;5072475;28;20219;-74
2024/02/15 06:26:00;;;;;;;36.70;22.45;;;13.10;99.90;;;;;;5071920;28;20218;-74
2024/02/15 06:39:44;;;;;;;37.13;21.58;;;13.10;99.90;;;;;;5069383;28;20235;-74
2024/02/15 06:42:15;;;;;;;29.13;18.00;;;13.10;99.90;;;;;;5068158;28;20551;-75
2024/02/15 06:44:44;;;;;;;31.38;20.60;;;13.20;99.90;;;;;;5069765;28;20205;-73
2024/02/15 06:47:11;;;;;;;28.50;19.10;;;13.20;99.90;;;;;;5075263;28;20560;-75
2024/02/15 06:49:40;;;;;;;36.08;22.70;;;13.20;99.90;;;;;;5063407;28;20223;-74
2024/02/15 06:52:07;;;;;;;25.77;18.70;;;13.20;99.90;;;;;;5071989;28;20285;-75
2024/02/15 06:54:36;;;;;;;21.15;14.70;;;13.30;99.90;;;;;;5071325;28;20203;-75
2024/02/15 06:57:04;;;;;;;26.98;18.80;;;13.30;99.90;;;;;;5076400;28;20716;-74
2024/02/15 06:59:31;;;;;;;32.63;21.30;;;13.30;99.90;;;;;;5074443;28;20207;-74
2024/02/15 07:02:00;;;;;;;32.42;20.10;;;13.30;99.90;;;;;;5071302;28;20219;-75
2024/02/15 07:04:28;;;;;;;27.80;17.70;;;13.30;99.90;;;;;;5063405;28;20250;-75
2024/02/15 07:06:55;;;;;;;30.33;17.70;;;13.30;99.90;;;;;;5076493;28;20208;-73
2024/02/15 07:09:24;;;;;;;23.65;16.67;;;13.30;99.90;;;;;;5068994;28;20208;-74
2024/02/15 07:11:51;;;;;;;21.23;15.93;;;13.40;99.90;;;;;;5070295;28;20605;-73
2024/02/15 07:14:18;;;;;;;28.83;19.30;;;13.40;99.90;;;;;;5067770;28;20219;-76
2024/02/15 07:16:49;;;;;;;35.15;19.10;;;13.40;99.90;;;;;;5074718;28;20261;-77
2024/02/15 07:19:18;;;;;;;31.35;19.90;;;13.30;99.90;;;;;;5075586;28;20283;-75
2024/02/15 07:21:46;;;;;;;28.80;18.40;;;13.40;99.90;;;;;;5073329;28;20673;-75
2024/02/15 07:24:13;;;;;;;21.10;16.40;;;13.40;99.90;;;;;;5070197;28;20238;-75
2024/02/15 07:26:40;;;;;;;28.50;19.77;;;13.40;99.90;;;;;;5075791;28;20223;-76
2024/02/15 07:29:07;;;;;;;24.58;18.25;;;13.40;99.90;;;;;;5075593;28;20259;-75
2024/02/15 07:31:35;;;;;;;32.17;20.15;;;13.40;99.90;;;;;;5073163;28;20199;-77
2024/02/15 07:34:03;;;;;;;24.83;18.42;;;13.40;99.90;;;;;;5074960;28;20223;-76
2024/02/15 07:36:32;;;;;;;33.03;19.67;;;13.50;99.90;;;;;;5069012;28;20210;-75
2024/02/15 07:39:00;;;;;;;31.23;20.40;;;13.50;99.90;;;;;;5073225;28;20260;-74
2024/02/15 07:41:27;;;;;;;23.40;17.20;;;13.50;99.90;;;;;;5073912;28;20292;-76
2024/02/15 07:43:55;;;;;;;23.70;17.45;;;13.50;99.90;;;;;;5071678;28;20692;-73
2024/02/15 07:46:24;;;;;;;27.23;19.88;;;13.50;99.90;;;;;;5074303;28;20257;-74
2024/02/15 07:48:51;;;;;;;30.13;21.02;;;13.50;99.90;;;;;;5071849;28;20219;-73
2024/02/15 07:51:19;;;;;;;29.45;18.20;;;13.50;99.90;;;;;;5072239;28;20226;-75
2024/02/15 07:53:49;;;;;;;23.17;18.23;;;13.60;99.90;;;;;;5064990;28;20307;-74
2024/02/15 07:56:17;;;;;;;32.05;22.15;;;13.50;99.90;;;;;;5066022;28;20686;-73
2024/02/15 07:58:46;;;;;;;30.77;22.42;;;13.50;99.90;;;;;;5072556;28;20200;-73
2024/02/15 08:01:14;;;;;;;26.23;17.13;;;13.50;99.90;;;;;;5073531;28;20214;-75
2024/02/15 08:03:44;;;;;;;27.48;18.85;;;13.50;99.90;;;;;;5074373;28;20273;-74
2024/02/15 08:06:12;;;;;;;34.38;22.45;;;13.50;99.90;;;;;;5075031;28;20211;-73
2024/02/15 08:08:41;;;;;;;31.05;21.67;;;13.60;99.90;;;;;;5070645;28;20219;-75
2024/02/15 08:11:14;;;;;;;34.55;23.40;;;13.60;99.90;;;;;;5070257;28;20540;-74
2024/02/15 08:13:43;;;;;;;24.17;18.35;;;13.60;99.90;;;;;;5068418;28;20253;-74
2024/02/15 08:16:12;;;;;;;27.38;20.65;;;13.60;99.90;;;;;;5065944;28;20231;-75
2024/02/15 08:18:39;;;;;;;22.70;16.45;;;13.60;99.90;;;;;;5071400;28;20196;-74
2024/02/15 08:21:06;;;;;;;28.95;20.77;;;13.70;99.90;;;;;;5070180;28;20223;-73
2024/02/15 08:23:33;;;;;;;24.27;18.27;;;13.80;99.90;;;;;;5073163;28;20765;-74
2024/02/15 08:26:00;;;;;;;30.13;20.80;;;13.80;99.90;;;;;;5070370;28;20218;-75
2024/02/15 08:28:29;;;;;;;29.65;22.00;;;13.90;99.90;;;;;;5073066;28;20203;-75
2024/02/15 08:30:57;;;;;;;27.98;19.85;;;13.90;99.90;;;;;;5073370;28;20282;-75
2024/02/15 08:33:24;;;;;;;27.25;22.73;;;14.00;99.90;;;;;;5070299;28;20306;-73
2024/02/15 08:35:54;;;;;;;26.58;20.25;;;14.00;99.90;;;;;;5070084;28;20204;-76
2024/02/15 08:38:21;;;;;;;26.17;18.05;;;14.00;99.90;;;;;;5074154;28;20215;-74
2024/02/15 08:40:49;;;;;;;24.85;18.00;;;14.00;99.90;;;;;;5068167;28;20265;-73
2024/02/15 08:43:16;;;;;;;32.17;20.50;;;14.10;99.90;;;;;;5065545;28;20617;-75
2024/02/15 08:45:45;;;;;;;25.40;17.95;;;14.10;99.90;;;;;;5069962;28;20199;-74
2024/02/15 08:48:12;;;;;;;25.63;21.65;;;14.20;99.90;;;;;;5073817;28;20552;-75
2024/02/15 08:50:41;;;;;;;23.50;19.95;;;14.20;99.90;;;;;;5068379;28;20633;-76
2024/02/15 08:53:08;;;;;;;22.90;18.73;;;14.10;99.90;;;;;;5069914;28;20259;-76
2024/02/15 08:55:36;;;;;;;25.27;21.17;;;14.10;99.90;;;;;;5071955;28;20207;-76
2024/02/15 08:58:04;;;;;;;31.02;22.48;;;14.20;99.90;;;;;;5071770;28;20586;-75
2024/02/15 09:00:32;;;;;;;29.15;25.30;;;14.20;99.90;;;;;;5070642;28;20654;-75
2024/02/15 09:03:00;;;;;;;29.02;21.65;;;14.10;99.90;;;;;;5071161;28;20215;-76
2024/02/15 09:05:27;;;;;;;30.90;22.27;;;14.20;99.90;;;;;;5071092;28;20203;-75
2024/02/15 09:07:55;;;;;;;31.50;22.48;;;14.30;99.90;;;;;;5071170;28;20650;-74
2024/02/15 09:10:23;;;;;;;30.15;20.05;;;14.20;99.90;;;;;;5071050;28;20227;-73
2024/02/15 09:12:50;;;;;;;33.05;22.85;;;14.40;99.90;;;;;;5073163;28;20405;-75
2024/02/15 09:15:18;;;;;;;35.03;25.35;;;14.50;99.90;;;;;;5073148;28;20203;-75
2024/02/15 09:17:45;;;;;;;28.88;23.05;;;14.50;99.90;;;;;;5072906;28;20203;-75
2024/02/15 09:20:15;;;;;;;38.50;25.67;;;14.50;99.90;;;;;;5072200;28;20261;-75
2024/02/15 09:22:42;;;;;;;29.60;20.63;;;14.50;99.90;;;;;;5068573;28;20227;-75
2024/02/15 09:25:11;;;;;;;33.10;23.73;;;14.50;99.90;;;;;;5069773;28;20673;-74
2024/02/15 09:27:38;;;;;;;33.30;25.65;;;14.50;99.90;;;;;;5069513;28;20203;-75
2024/02/15 09:30:08;;;;;;;32.78;22.05;;;14.40;99.90;;;;;;5072083;28;20269;-75
2024/02/15 09:32:35;;;;;;;39.60;28.45;;;14.50;99.90;;;;;;5071698;28;20223;-75
2024/02/15 09:35:03;;;;;;;29.95;22.30;;;14.60;99.90;;;;;;5072996;28;20199;-75
2024/02/15 09:37:33;;;;;;;35.58;23.15;;;14.60;99.90;;;;;;5072714;28;20207;-76
2024/02/15 09:40:04;;;;;;;36.90;25.70;;;14.60;99.90;;;;;;5064688;28;20218;-75
2024/02/15 09:42:34;;;;;;;31.23;23.55;;;14.60;99.90;;;;;;5072563;28;20234;-75
2024/02/15 09:45:02;;;;;;;28.20;22.77;;;14.60;99.90;;;;;;5068366;28;20227;-77
2024/02/15 09:47:34;;;;;;;39.10;25.55;;;14.60;99.90;;;;;;5071054;28;20239;-75
2024/02/15 09:50:02;;;;;;;28.77;21.80;;;14.40;99.90;;;;;;5071565;28;20225;-75
2024/02/15 09:52:35;;;;;;;33.08;24.13;;;14.40;99.90;;;;;;5070667;28;20677;-76
2024/02/15 09:55:04;;;;;;;40.75;26.77;;;14.40;99.90;;;;;;5072260;28;20237;-75
2024/02/15 09:57:33;;;;;;;33.53;23.98;;;14.20;99.90;;;;;;5069324;28;20222;-76
2024/02/15 10:00:00;;;;;;;40.88;27.13;;;14.20;99.90;;;;;;5068585;28;20239;-74
2024/02/15 10:02:28;;;;;;;43.08;27.98;;;14.20;99.90;;;;;;5072367;28;20234;-75
2024/02/15 10:04:57;;;;;;;43.30;28.98;;;14.20;99.90;;;;;;5070162;28;20235;-74
2024/02/15 10:07:24;;;;;;;46.85;29.10;;;14.10;99.90;;;;;;5068879;28;20231;-75
2024/02/15 10:09:53;;;;;;;33.10;22.65;;;14.10;99.90;;;;;;5071392;28;20215;-75
2024/02/15 10:12:20;;;;;;;44.38;28.10;;;14.20;99.90;;;;;;5065863;28;20223;-75
2024/02/15 10:14:53;;;;;;;36.65;27.80;;;14.00;99.90;;;;;;5072141;28;20210;-76
2024/02/15 10:17:20;;;;;;;38.05;28.13;;;14.00;99.90;;;;;;5064021;28;20199;-73
2024/02/15 10:20:06;;;;;;;38.92;26.40;;;14.00;99.90;;;;;;5070552;28;20200;-76
2024/02/15 10:22:33;;;;;;;50.47;30.42;;;14.10;99.90;;;;;;5070341;28;20626;-75
2024/02/15 10:25:15;;;;;;;34.25;24.88;;;14.10;99.90;;;;;;5070513;28;20706;-76
2024/02/15 10:27:42;;;;;;;36.75;24.58;;;14.10;99.90;;;;;;5070153;28;20248;-75
2024/02/15 10:30:16;;;;;;;45.25;32.67;;;14.00;99.90;;;;;;5070428;28;20308;-75
2024/02/15 10:32:44;;;;;;;49.70;32.30;;;13.90;99.90;;;;;;5068135;28;20245;-75
2024/02/15 10:35:15;;;;;;;40.45;27.40;;;13.90;99.90;;;;;;5070886;28;20231;-75
2024/02/15 10:37:43;;;;;;;30.15;23.98;;;14.00;99.90;;;;;;5066489;28;20555;-75
2024/02/15 10:40:13;;;;;;;43.17;28.90;;;14.00;99.90;;;;;;5067511;28;20566;-75
2024/02/15 10:42:42;;;;;;;43.42;30.05;;;14.00;99.90;;;;;;5072089;28;20223;-75
2024/02/15 10:45:11;;;;;;;37.47;28.98;;;14.00;99.90;;;;;;5071983;28;20234;-75
2024/02/15 10:47:40;;;;;;;35.97;28.38;;;14.00;99.90;;;;;;5069698;28;20338;-75
2024/02/15 10:50:09;;;;;;;44.55;29.35;;;14.00;99.90;;;;;;5070637;28;20227;-76
2024/02/15 10:52:41;;;;;;;34.60;27.38;;;14.00;99.90;;;;;;5071804;28;22050;-75
2024/02/15 10:55:13;;;;;;;26.63;20.77;;;14.10;99.90;;;;;;5071406;28;20199;-76
2024/02/15 10:57:48;;;;;;;29.25;23.88;;;14.10;99.90;;;;;;5069082;28;20704;-74
2024/02/15 11:00:21;;;;;;;36.25;21.92;;;14.10;99.90;;;;;;5069151;28;20264;-75
2024/02/15 11:02:58;;;;;;;31.17;25.63;;;14.20;99.90;;;;;;5064319;28;20689;-77
2024/02/15 11:05:25;;;;;;;28.60;23.27;;;14.20;99.90;;;;;;5069510;28;20273;-75
2024/02/15 11:07:54;;;;;;;26.75;20.13;;;14.20;99.90;;;;;;5072678;28;20256;-75
2024/02/15 11:10:21;;;;;;;32.22;23.33;;;14.10;99.90;;;;;;5070955;28;20219;-76
2024/02/15 11:12:52;;;;;;;30.27;22.08;;;14.00;99.90;;;;;;5068837;28;20263;-76
2024/02/15 11:15:49;;;;;;;32.28;23.23;;;13.90;99.90;;;;;;5068146;28;20704;-74
2024/02/15 11:18:51;;;;;;;27.35;22.42;;;13.90;99.90;;;;;;5068924;28;20212;-75
2024/02/15 11:21:19;;;;;;;27.85;19.23;;;14.00;99.90;;;;;;5069011;28;20199;-75
2024/02/15 11:23:46;;;;;;;27.58;20.98;;;14.00;99.90;;;;;;5070366;28;20258;-74
2024/02/15 11:26:47;;;;;;;25.15;21.70;;;14.00;99.90;;;;;;5063321;28;20232;-74
2024/02/15 11:29:48;;;;;;;23.30;19.33;;;13.80;99.90;;;;;;5072726;28;20654;-74
2024/02/15 11:32:39;;;;;;;25.63;19.52;;;13.80;99.90;;;;;;5072772;28;20201;-75
2024/02/15 11:35:10;;;;;;;28.38;22.70;;;13.80;99.90;;;;;;5069861;28;20652;-76
2024/02/15 11:38:01;;;;;;;34.83;20.95;;;13.80;99.90;;;;;;5067754;28;20200;-74
2024/02/15 11:40:29;;;;;;;30.33;22.10;;;13.80;99.90;;;;;;5072606;28;20616;-74
2024/02/15 11:42:59;;;;;;;28.80;23.20;;;13.80;99.90;;;;;;5074136;28;20309;-74
2024/02/15 11:45:26;;;;;;;21.63;16.55;;;13.80;99.90;;;;;;5072956;28;20573;-74
2024/02/15 11:47:55;;;;;;;22.85;20.35;;;14.00;99.90;;;;;;5073846;28;20222;-75
2024/02/15 11:50:23;;;;;;;26.95;21.48;;;14.00;99.90;;;;;;5073308;28;20220;-73
2024/02/15 11:52:51;;;;;;;24.98;17.63;;;13.90;99.90;;;;;;5070243;28;20268;-75
2024/02/15 11:55:23;;;;;;;23.25;19.42;;;14.00;99.90;;;;;;5071226;28;20261;-74
2024/02/15 11:58:02;;;;;;;21.13;17.20;;;14.00;99.90;;;;;;5070003;28;20195;-76
2024/02/15 12:19:56;;;;;;;20.17;15.95;;;14.30;99.90;;;;;;5065014;28;20348;-74
2024/02/15 12:22:26;;;;;;;17.33;15.45;;;14.30;99.90;;;;;;5072409;28;20223;-75
2024/02/15 12:24:57;;;;;;;18.85;16.90;;;14.50;99.90;;;;;;5073595;28;20249;-75
2024/02/15 12:27:27;;;;;;;19.40;17.27;;;14.40;99.90;;;;;;5073849;28;20242;-75
2024/02/15 12:29:55;;;;;;;17.55;15.75;;;14.40;99.90;;;;;;5074162;28;20261;-73
2024/02/15 12:32:23;;;;;;;18.33;16.42;;;14.50;99.90;;;;;;5074492;28;20231;-76
2024/02/15 12:34:51;;;;;;;18.35;16.65;;;14.50;99.90;;;;;;5067092;28;20290;-75
2024/02/15 12:37:21;;;;;;;17.80;12.82;;;14.50;99.90;;;;;;5067043;28;20214;-75
2024/02/15 12:39:49;;;;;;;17.90;15.13;;;14.60;99.90;;;;;;5065782;28;20196;-76
2024/02/15 12:42:17;;;;;;;19.40;15.27;;;14.70;99.90;;;;;;5072320;28;20282;-74
2024/02/15 12:44:48;;;;;;;14.93;13.45;;;14.60;99.90;;;;;;5074035;28;20200;-74
2024/02/15 12:47:23;;;;;;;15.93;13.77;;;14.60;99.90;;;;;;5074223;28;20207;-74
2024/02/15 12:49:51;;;;;;;14.25;12.85;;;14.70;99.90;;;;;;5065109;28;20277;-73
2024/02/15 12:52:38;;;;;;;17.42;14.73;;;14.70;99.90;;;;;;5069882;28;20227;-74
2024/02/15 12:55:11;;;;;;;15.43;13.20;;;14.60;99.90;;;;;;5071911;28;20276;-75
2024/02/15 12:57:40;;;;;;;17.30;13.27;;;14.60;99.90;;;;;;5072481;28;20203;-74
2024/02/15 13:00:13;;;;;;;15.98;13.05;;;14.50;99.90;;;;;;5069093;28;20199;-74
2024/02/15 13:02:41;;;;;;;21.98;14.07;;;14.50;99.90;;;;;;5072496;28;20231;-74
2024/02/15 13:05:09;;;;;;;14.57;13.10;;;14.40;99.90;;;;;;5072360;28;20203;-73
2024/02/15 13:07:39;;;;;;;13.57;12.35;;;14.40;99.90;;;;;;5073532;28;20668;-73